createdAt,value
2018-09-08T00:00:40.635Z,99.99
2018-09-08T00:01:40.718Z,99.99
2018-09-08T00:02:40.640Z,99.99
2018-09-08T00:03:40.674Z,99.99
2018-09-08T00:04:40.656Z,99.99
2018-09-08T00:05:40.668Z,99.99
2018-09-08T00:06:40.794Z,99.99
2018-09-08T00:07:40.721Z,99.99
2018-09-08T00:08:40.739Z,99.99
2018-09-08T00:09:40.747Z,99.99
2018-09-08T00:10:40.741Z,99.99
2018-09-08T00:11:40.861Z,99.99
2018-09-08T00:12:40.785Z,99.99
2018-09-08T00:13:40.785Z,99.99
2018-09-08T00:14:40.802Z,99.99
2018-09-08T00:15:40.816Z,99.99
2018-09-08T00:16:40.910Z,99.99
2018-09-08T00:17:40.818Z,99.99
2018-09-08T00:18:40.844Z,99.99
2018-09-08T00:19:40.892Z,99.99
2018-09-08T00:20:40.861Z,99.99
2018-09-08T00:21:41.057Z,99.99
2018-09-08T00:22:40.889Z,99.99
2018-09-08T00:23:40.897Z,99.99
2018-09-08T00:24:40.928Z,99.99
2018-09-08T00:25:40.937Z,99.99
2018-09-08T00:26:40.927Z,99.99
2018-09-08T00:27:41.051Z,99.99
2018-09-08T00:28:40.943Z,99.99
2018-09-08T00:29:40.960Z,99.99
2018-09-08T00:30:40.976Z,99.99
2018-09-08T00:31:41.039Z,99.99
2018-09-08T00:32:41.181Z,99.99
2018-09-08T00:33:41.026Z,99.99
2018-09-08T00:34:41.035Z,99.99
2018-09-08T00:35:41.034Z,99.99
2018-09-08T00:36:41.057Z,99.99
2018-09-08T00:37:41.129Z,99.99
2018-09-08T00:38:41.061Z,99.99
2018-09-08T00:39:41.076Z,99.99
2018-09-08T00:40:41.102Z,99.99
2018-09-08T00:41:41.107Z,99.99
2018-09-08T00:42:41.288Z,99.99
2018-09-08T00:43:41.135Z,99.99
2018-09-08T00:44:41.142Z,99.99
2018-09-08T00:45:41.171Z,99.99
2018-09-08T00:46:41.158Z,99.99
2018-09-08T00:47:41.298Z,99.99
2018-09-08T00:48:41.192Z,99.99
2018-09-08T00:49:41.216Z,99.99
2018-09-08T00:50:41.256Z,99.99
2018-09-08T00:51:41.226Z,99.99
2018-09-08T00:52:41.404Z,99.99
2018-09-08T00:53:41.250Z,99.99
2018-09-08T00:54:41.269Z,99.99
2018-09-08T00:55:41.271Z,99.99
2018-09-08T00:56:41.285Z,99.99
2018-09-08T00:57:41.512Z,99.99
2018-09-08T00:58:41.316Z,99.99
2018-09-08T00:59:41.312Z,99.99
2018-09-08T01:00:41.333Z,99.99
2018-09-08T01:01:41.362Z,99.99
2018-09-08T01:02:41.501Z,99.99
2018-09-08T01:03:41.439Z,99.99
2018-09-08T01:04:41.363Z,99.99
2018-09-08T01:05:41.398Z,99.99
2018-09-08T01:06:41.399Z,99.99
2018-09-08T01:07:41.558Z,99.99
2018-09-08T01:08:41.432Z,99.99
2018-09-08T01:09:41.448Z,99.99
2018-09-08T01:10:41.462Z,99.99
2018-09-08T01:11:41.450Z,99.99
2018-09-08T01:12:41.623Z,99.99
2018-09-08T01:13:41.535Z,99.99
2018-09-08T01:14:41.499Z,99.99
2018-09-08T01:15:41.501Z,99.99
2018-09-08T01:16:41.510Z,99.99
2018-09-08T01:17:41.546Z,99.99
2018-09-08T01:18:41.615Z,99.99
2018-09-08T01:19:41.541Z,99.99
2018-09-08T01:20:41.564Z,99.99
2018-09-08T01:21:41.567Z,99.99
2018-09-08T01:22:41.673Z,99.99
2018-09-08T01:23:41.591Z,99.99
2018-09-08T01:24:41.628Z,99.99
2018-09-08T01:25:41.630Z,99.99
2018-09-08T01:26:41.631Z,99.99
2018-09-08T01:27:41.748Z,99.99
2018-09-08T01:28:41.640Z,99.99
2018-09-08T01:29:41.673Z,99.99
2018-09-08T01:30:41.667Z,99.99
2018-09-08T01:31:41.692Z,99.99
2018-09-08T01:32:41.757Z,99.99
2018-09-08T01:33:41.718Z,99.99
2018-09-08T01:34:41.735Z,99.99
2018-09-08T01:35:41.893Z,99.99
2018-09-08T01:36:41.751Z,99.99
2018-09-08T01:37:41.751Z,99.99
2018-09-08T01:38:41.762Z,99.99
2018-09-08T01:39:41.770Z,99.99
2018-09-08T01:40:41.932Z,99.99
2018-09-08T01:41:41.812Z,99.99
2018-09-08T01:42:41.814Z,99.99
2018-09-08T01:43:41.814Z,99.99
2018-09-08T01:44:41.833Z,99.99
2018-09-08T01:45:41.941Z,99.99
2018-09-08T01:46:41.885Z,99.99
2018-09-08T01:47:41.892Z,99.99
2018-09-08T01:48:41.897Z,99.99
2018-09-08T01:49:41.895Z,99.99
2018-09-08T01:50:42.056Z,99.99
2018-09-08T01:51:41.919Z,99.99
2018-09-08T01:52:41.936Z,99.99
2018-09-08T01:53:41.946Z,99.99
2018-09-08T01:54:41.943Z,99.99
2018-09-08T01:55:42.128Z,99.99
2018-09-08T01:56:41.989Z,99.99
2018-09-08T01:57:41.995Z,99.99
2018-09-08T01:58:41.989Z,99.99
2018-09-08T01:59:42.029Z,99.99
2018-09-08T02:00:42.180Z,99.99
2018-09-08T02:01:42.038Z,99.99
2018-09-08T02:02:42.052Z,99.99
2018-09-08T02:03:42.043Z,99.99
2018-09-08T02:04:42.053Z,99.99
2018-09-08T02:05:42.232Z,99.99
2018-09-08T02:06:42.109Z,99.99
2018-09-08T02:07:42.105Z,99.99
2018-09-08T02:08:42.120Z,99.99
2018-09-08T02:09:42.127Z,99.99
2018-09-08T02:10:42.308Z,99.99
2018-09-08T02:11:42.137Z,99.99
2018-09-08T02:12:42.174Z,99.99
2018-09-08T02:13:42.172Z,99.99
2018-09-08T02:14:42.184Z,99.99
2018-09-08T02:15:42.391Z,99.99
2018-09-08T02:16:42.210Z,99.99
2018-09-08T02:17:42.210Z,99.99
2018-09-08T02:18:42.272Z,99.99
2018-09-08T02:19:42.285Z,99.99
2018-09-08T02:20:42.413Z,99.99
2018-09-08T02:21:42.273Z,99.99
2018-09-08T02:22:42.275Z,99.99
2018-09-08T02:23:42.283Z,99.99
2018-09-08T02:24:42.287Z,99.99
2018-09-08T02:25:42.508Z,99.99
2018-09-08T02:26:42.313Z,99.99
2018-09-08T02:27:42.339Z,99.99
2018-09-08T02:28:42.331Z,99.99
2018-09-08T02:29:42.396Z,99.99
2018-09-08T02:30:42.555Z,99.99
2018-09-08T02:31:42.378Z,99.99
2018-09-08T02:32:42.369Z,99.99
2018-09-08T02:33:42.396Z,99.99
2018-09-08T02:34:42.425Z,99.99
2018-09-08T02:35:42.573Z,99.99
2018-09-08T02:36:42.415Z,99.99
2018-09-08T02:37:42.442Z,99.99
2018-09-08T02:38:42.462Z,99.99
2018-09-08T02:39:42.466Z,99.99
2018-09-08T02:40:42.636Z,99.99
2018-09-08T02:41:42.494Z,99.99
2018-09-08T02:42:42.537Z,99.99
2018-09-08T02:43:42.508Z,99.99
2018-09-08T02:44:42.518Z,99.99
2018-09-08T02:45:42.694Z,99.99
2018-09-08T02:46:42.549Z,99.99
2018-09-08T02:47:42.557Z,99.99
2018-09-08T02:48:42.563Z,99.99
2018-09-08T02:49:42.572Z,99.99
2018-09-08T02:50:42.736Z,99.99
2018-09-08T02:51:42.589Z,99.99
2018-09-08T02:52:42.599Z,99.99
2018-09-08T02:53:42.616Z,99.99
2018-09-08T02:54:42.625Z,99.99
2018-09-08T02:55:42.808Z,99.99
2018-09-08T02:56:42.657Z,99.99
2018-09-08T02:57:42.669Z,99.99
2018-09-08T02:58:42.683Z,99.99
2018-09-08T02:59:42.670Z,99.99
2018-09-08T03:00:42.854Z,99.99
2018-09-08T03:01:42.703Z,99.99
2018-09-08T03:02:42.713Z,99.99
2018-09-08T03:03:42.717Z,99.99
2018-09-08T03:04:42.738Z,99.99
2018-09-08T03:05:42.856Z,99.99
2018-09-08T03:06:42.800Z,99.99
2018-09-08T03:07:42.754Z,99.99
2018-09-08T03:08:42.788Z,99.99
2018-09-08T03:09:42.802Z,99.99
2018-09-08T03:10:42.906Z,99.99
2018-09-08T03:11:42.815Z,99.99
2018-09-08T03:12:42.813Z,99.99
2018-09-08T03:13:42.833Z,99.99
2018-09-08T03:14:42.840Z,99.99
2018-09-08T03:15:42.969Z,99.99
2018-09-08T03:16:42.863Z,99.99
2018-09-08T03:17:42.873Z,99.99
2018-09-08T03:18:42.889Z,99.99
2018-09-08T03:19:42.908Z,99.99
2018-09-08T03:20:43.069Z,99.99
2018-09-08T03:21:42.962Z,99.99
2018-09-08T03:22:42.950Z,99.99
2018-09-08T03:23:42.941Z,99.99
2018-09-08T03:24:42.942Z,99.99
2018-09-08T03:25:42.973Z,99.99
2018-09-08T03:26:43.079Z,99.99
2018-09-08T03:27:42.979Z,99.99
2018-09-08T03:28:42.982Z,99.99
2018-09-08T03:29:43.011Z,99.99
2018-09-08T03:30:43.017Z,99.99
2018-09-08T03:31:43.181Z,99.99
2018-09-08T03:32:43.052Z,99.99
2018-09-08T03:33:43.050Z,99.99
2018-09-08T03:34:43.086Z,99.99
2018-09-08T03:35:43.120Z,99.99
2018-09-08T03:36:43.258Z,99.99
2018-09-08T03:37:43.085Z,99.99
2018-09-08T03:38:43.100Z,99.99
2018-09-08T03:39:43.100Z,99.99
2018-09-08T03:40:43.124Z,99.99
2018-09-08T03:41:43.249Z,99.99
2018-09-08T03:42:43.147Z,99.99
2018-09-08T03:43:43.145Z,99.99
2018-09-08T03:44:43.179Z,99.99
2018-09-08T03:45:43.167Z,99.99
2018-09-08T03:46:43.288Z,99.99
2018-09-08T03:47:43.192Z,99.99
2018-09-08T03:48:43.199Z,99.99
2018-09-08T03:49:43.217Z,99.99
2018-09-08T03:50:43.215Z,99.99
2018-09-08T03:51:43.402Z,99.99
2018-09-08T03:52:43.237Z,99.99
2018-09-08T03:53:43.253Z,99.99
2018-09-08T03:54:43.318Z,99.99
2018-09-08T03:55:43.332Z,99.99
2018-09-08T03:56:43.485Z,99.99
2018-09-08T03:57:43.320Z,99.99
2018-09-08T03:58:43.305Z,99.99
2018-09-08T03:59:43.326Z,99.99
2018-09-08T04:00:43.348Z,99.99
2018-09-08T04:01:43.448Z,99.99
2018-09-08T04:02:43.348Z,99.99
2018-09-08T04:03:43.409Z,99.99
2018-09-08T04:04:43.395Z,99.99
2018-09-08T04:05:43.495Z,99.99
2018-09-08T04:06:43.540Z,99.99
2018-09-08T04:07:43.418Z,99.99
2018-09-08T04:08:43.422Z,99.99
2018-09-08T04:09:43.434Z,99.99
2018-09-08T04:10:43.441Z,99.99
2018-09-08T04:11:43.497Z,99.99
2018-09-08T04:12:43.619Z,99.99
2018-09-08T04:13:43.474Z,99.99
2018-09-08T04:14:43.496Z,99.99
2018-09-08T04:15:43.517Z,99.99
2018-09-08T04:16:43.501Z,99.99
2018-09-08T04:17:43.577Z,99.99
2018-09-08T04:18:43.575Z,99.99
2018-09-08T04:19:43.665Z,99.99
2018-09-08T04:20:43.557Z,99.99
2018-09-08T04:21:43.564Z,99.99
2018-09-08T04:22:43.567Z,99.99
2018-09-08T04:23:43.581Z,99.99
2018-09-08T04:24:43.707Z,99.99
2018-09-08T04:25:43.593Z,99.99
2018-09-08T04:26:43.602Z,99.99
2018-09-08T04:27:43.616Z,99.99
2018-09-08T04:28:43.625Z,99.99
2018-09-08T04:29:43.798Z,99.99
2018-09-08T04:30:43.670Z,99.99
2018-09-08T04:31:43.656Z,99.99
2018-09-08T04:32:43.691Z,99.99
2018-09-08T04:33:43.707Z,99.99
2018-09-08T04:34:43.897Z,99.99
2018-09-08T04:35:43.710Z,99.99
2018-09-08T04:36:43.707Z,99.99
2018-09-08T04:37:43.726Z,99.99
2018-09-08T04:38:43.738Z,99.99
2018-09-08T04:39:43.816Z,99.99
2018-09-08T04:40:43.839Z,99.99
2018-09-08T04:41:43.782Z,99.99
2018-09-08T04:42:43.797Z,99.99
2018-09-08T04:43:43.781Z,99.99
2018-09-08T04:44:43.983Z,99.99
2018-09-08T04:45:43.830Z,99.99
2018-09-08T04:46:43.812Z,99.99
2018-09-08T04:47:43.826Z,99.99
2018-09-08T04:48:43.850Z,99.99
2018-09-08T04:49:43.913Z,99.99
2018-09-08T04:50:43.875Z,99.99
2018-09-08T04:51:43.890Z,99.99
2018-09-08T04:52:43.898Z,99.99
2018-09-08T04:53:43.908Z,99.99
2018-09-08T04:54:44.016Z,99.99
2018-09-08T04:55:43.935Z,99.99
2018-09-08T04:56:43.934Z,99.99
2018-09-08T04:57:43.994Z,99.99
2018-09-08T04:58:43.978Z,99.99
2018-09-08T04:59:44.009Z,99.99
2018-09-08T05:00:43.984Z,99.99
2018-09-08T05:01:44.004Z,99.99
2018-09-08T05:02:44.150Z,99.99
2018-09-08T05:03:44.014Z,99.99
2018-09-08T05:04:44.042Z,99.99
2018-09-08T05:05:44.027Z,99.99
2018-09-08T05:06:44.041Z,99.99
2018-09-08T05:07:44.224Z,99.99
2018-09-08T05:08:44.077Z,99.99
2018-09-08T05:09:44.085Z,99.99
2018-09-08T05:10:44.139Z,99.99
2018-09-08T05:11:44.110Z,99.99
2018-09-08T05:12:44.152Z,99.99
2018-09-08T05:13:44.124Z,99.99
2018-09-08T05:14:44.127Z,99.99
2018-09-08T05:15:44.235Z,99.99
2018-09-08T05:16:44.155Z,99.99
2018-09-08T05:17:44.160Z,99.99
2018-09-08T05:18:44.171Z,99.99
2018-09-08T05:19:44.185Z,99.99
2018-09-08T05:20:44.309Z,99.99
2018-09-08T05:21:44.235Z,99.99
2018-09-08T05:22:44.230Z,99.99
2018-09-08T05:23:44.232Z,99.99
2018-09-08T05:24:44.239Z,99.99
2018-09-08T05:25:44.342Z,99.99
2018-09-08T05:26:44.253Z,99.99
2018-09-08T05:27:44.285Z,99.99
2018-09-08T05:28:44.291Z,99.99
2018-09-08T05:29:44.308Z,99.99
2018-09-08T05:30:44.358Z,99.99
2018-09-08T05:31:44.327Z,99.99
2018-09-08T05:32:44.324Z,99.99
2018-09-08T05:33:44.359Z,99.99
2018-09-08T05:34:44.464Z,99.99
2018-09-08T05:35:44.376Z,99.99
2018-09-08T05:36:44.377Z,99.99
2018-09-08T05:37:44.402Z,99.99
2018-09-08T05:38:44.426Z,99.99
2018-09-08T05:39:44.538Z,99.99
2018-09-08T05:40:44.423Z,99.99
2018-09-08T05:41:44.477Z,99.99
2018-09-08T05:42:44.459Z,99.99
2018-09-08T05:43:44.485Z,99.99
2018-09-08T05:44:44.581Z,99.99
2018-09-08T05:45:44.488Z,99.99
2018-09-08T05:46:44.504Z,99.99
2018-09-08T05:47:44.521Z,99.99
2018-09-08T05:48:44.522Z,99.99
2018-09-08T05:49:44.674Z,99.99
2018-09-08T05:50:44.548Z,99.99
2018-09-08T05:51:44.539Z,99.99
2018-09-08T05:52:44.567Z,99.99
2018-09-08T05:53:44.555Z,99.99
2018-09-08T05:54:44.740Z,99.99
2018-09-08T05:55:44.616Z,99.99
2018-09-08T05:56:44.604Z,99.99
2018-09-08T05:57:44.627Z,99.99
2018-09-08T05:58:44.630Z,99.99
2018-09-08T05:59:44.754Z,99.99
2018-09-08T06:00:44.640Z,99.99
2018-09-08T06:01:44.660Z,99.99
2018-09-08T06:02:44.668Z,99.99
2018-09-08T06:03:44.672Z,99.99
2018-09-08T06:04:44.812Z,99.99
2018-09-08T06:05:44.696Z,99.99
2018-09-08T06:06:44.729Z,99.99
2018-09-08T06:07:44.730Z,99.99
2018-09-08T06:08:44.731Z,99.99
2018-09-08T06:09:44.792Z,99.99
2018-09-08T06:10:44.882Z,99.99
2018-09-08T06:11:44.785Z,99.99
2018-09-08T06:12:44.778Z,99.99
2018-09-08T06:13:44.783Z,99.99
2018-09-08T06:14:44.807Z,99.99
2018-09-08T06:15:44.928Z,99.99
2018-09-08T06:16:44.855Z,99.99
2018-09-08T06:17:44.859Z,99.99
2018-09-08T06:18:44.854Z,99.99
2018-09-08T06:19:44.896Z,99.99
2018-09-08T06:20:44.973Z,99.99
2018-09-08T06:21:44.874Z,99.99
2018-09-08T06:22:44.881Z,99.99
2018-09-08T06:23:44.907Z,99.99
2018-09-08T06:24:44.932Z,99.99
2018-09-08T06:25:44.986Z,99.99
2018-09-08T06:26:44.950Z,99.99
2018-09-08T06:27:44.961Z,99.99
2018-09-08T06:28:45.006Z,99.99
2018-09-08T06:29:44.973Z,99.99
2018-09-08T06:30:45.033Z,99.99
2018-09-08T06:31:45.043Z,99.99
2018-09-08T06:32:44.997Z,99.99
2018-09-08T06:33:45.051Z,99.99
2018-09-08T06:34:45.075Z,99.99
2018-09-08T06:35:45.154Z,99.99
2018-09-08T06:36:45.069Z,99.99
2018-09-08T06:37:45.125Z,99.99
2018-09-08T06:38:45.092Z,99.99
2018-09-08T06:39:45.071Z,99.99
2018-09-08T06:40:45.258Z,99.99
2018-09-08T06:41:45.113Z,99.99
2018-09-08T06:42:45.117Z,99.99
2018-09-08T06:43:45.127Z,99.99
2018-09-08T06:44:45.167Z,99.99
2018-09-08T06:45:45.212Z,99.99
2018-09-08T06:46:45.164Z,99.99
2018-09-08T06:47:45.268Z,99.99
2018-09-08T06:48:45.174Z,99.99
2018-09-08T06:49:45.203Z,99.99
2018-09-08T06:50:45.198Z,99.99
2018-09-08T06:51:45.221Z,99.99
2018-09-08T06:52:45.341Z,99.99
2018-09-08T06:53:45.245Z,99.99
2018-09-08T06:54:45.247Z,99.99
2018-09-08T06:55:45.270Z,99.99
2018-09-08T06:56:45.267Z,99.99
2018-09-08T06:57:45.397Z,99.99
2018-09-08T06:58:45.305Z,99.99
2018-09-08T06:59:45.291Z,99.99
2018-09-08T07:00:45.329Z,99.99
2018-09-08T07:01:45.364Z,99.99
2018-09-08T07:02:45.431Z,99.99
2018-09-08T07:03:45.353Z,99.99
2018-09-08T07:04:45.363Z,99.99
2018-09-08T07:05:45.388Z,99.99
2018-09-08T07:06:45.387Z,99.99
2018-09-08T07:07:45.492Z,99.99
2018-09-08T07:08:45.398Z,99.99
2018-09-08T07:09:45.409Z,99.99
2018-09-08T07:10:45.438Z,99.99
2018-09-08T07:11:45.453Z,99.99
2018-09-08T07:12:45.605Z,99.99
2018-09-08T07:13:45.458Z,99.99
2018-09-08T07:14:45.475Z,99.99
2018-09-08T07:15:45.478Z,99.99
2018-09-08T07:16:45.475Z,99.99
2018-09-08T07:17:45.600Z,99.99
2018-09-08T07:18:45.495Z,99.99
2018-09-08T07:19:45.528Z,99.99
2018-09-08T07:20:45.518Z,99.99
2018-09-08T07:21:45.551Z,99.99
2018-09-08T07:22:45.669Z,99.99
2018-09-08T07:23:45.547Z,99.99
2018-09-08T07:24:45.646Z,99.99
2018-09-08T07:25:45.571Z,99.99
2018-09-08T07:26:45.611Z,99.99
2018-09-08T07:27:45.718Z,99.99
2018-09-08T07:28:45.616Z,99.99
2018-09-08T07:29:45.628Z,99.99
2018-09-08T07:30:45.640Z,99.99
2018-09-08T07:31:45.642Z,99.99
2018-09-08T07:32:45.761Z,99.99
2018-09-08T07:33:45.676Z,99.99
2018-09-08T07:34:45.680Z,99.99
2018-09-08T07:35:45.678Z,99.99
2018-09-08T07:36:45.717Z,99.99
2018-09-08T07:37:45.968Z,99.99
2018-09-08T07:38:45.735Z,99.99
2018-09-08T07:39:45.747Z,99.99
2018-09-08T07:40:45.754Z,99.99
2018-09-08T07:41:45.809Z,99.99
2018-09-08T07:42:45.772Z,99.99
2018-09-08T07:43:45.978Z,99.99
2018-09-08T07:44:45.787Z,99.99
2018-09-08T07:45:45.791Z,99.99
2018-09-08T07:46:45.798Z,99.99
2018-09-08T07:47:45.825Z,99.99
2018-09-08T07:48:46.082Z,99.99
2018-09-08T07:49:45.851Z,99.99
2018-09-08T07:50:45.841Z,99.99
2018-09-08T07:51:45.864Z,99.99
2018-09-08T07:52:45.896Z,99.99
2018-09-08T07:53:46.054Z,99.99
2018-09-08T07:54:45.902Z,99.99
2018-09-08T07:55:45.919Z,99.99
2018-09-08T07:56:45.911Z,99.99
2018-09-08T07:57:45.943Z,99.99
2018-09-08T07:58:45.989Z,99.99
2018-09-08T07:59:46.057Z,99.99
2018-09-08T08:00:45.951Z,99.99
2018-09-08T08:01:45.968Z,99.99
2018-09-08T08:02:45.989Z,99.99
2018-09-08T08:03:46.005Z,99.99
2018-09-08T08:04:46.109Z,99.99
2018-09-08T08:05:46.009Z,99.99
2018-09-08T08:06:46.045Z,99.99
2018-09-08T08:07:46.043Z,99.99
2018-09-08T08:08:46.053Z,99.99
2018-09-08T08:09:46.231Z,99.99
2018-09-08T08:10:46.057Z,99.99
2018-09-08T08:11:46.129Z,99.99
2018-09-08T08:12:46.093Z,99.99
2018-09-08T08:13:46.108Z,99.99
2018-09-08T08:14:46.227Z,99.99
2018-09-08T08:15:46.120Z,99.99
2018-09-08T08:16:46.148Z,99.99
2018-09-08T08:17:46.137Z,99.99
2018-09-08T08:18:46.156Z,99.99
2018-09-08T08:19:46.272Z,99.99
2018-09-08T08:20:46.196Z,99.99
2018-09-08T08:21:46.205Z,99.99
2018-09-08T08:22:46.205Z,99.99
2018-09-08T08:23:46.220Z,99.99
2018-09-08T08:24:46.330Z,99.99
2018-09-08T08:25:46.239Z,99.99
2018-09-08T08:26:46.244Z,99.99
2018-09-08T08:27:46.253Z,99.99
2018-09-08T08:28:46.272Z,99.99
2018-09-08T08:29:46.375Z,99.99
2018-09-08T08:30:46.271Z,99.99
2018-09-08T08:31:46.307Z,99.99
2018-09-08T08:32:46.310Z,99.99
2018-09-08T08:33:46.330Z,99.99
2018-09-08T08:34:46.425Z,99.99
2018-09-08T08:35:46.341Z,99.99
2018-09-08T08:36:46.359Z,99.99
2018-09-08T08:37:46.373Z,99.99
2018-09-08T08:38:46.376Z,99.99
2018-09-08T08:39:46.417Z,99.99
2018-09-08T08:40:46.400Z,99.99
2018-09-08T08:41:46.512Z,99.99
2018-09-08T08:43:46.412Z,99.99
2018-09-08T08:44:46.439Z,99.99
2018-09-08T08:45:46.439Z,99.99
2018-09-08T08:46:46.561Z,99.99
2018-09-08T08:47:46.477Z,99.99
2018-09-08T08:48:46.494Z,99.99
2018-09-08T08:49:46.542Z,99.99
2018-09-08T08:50:46.507Z,99.99
2018-09-08T08:51:46.660Z,99.99
2018-09-08T08:52:46.512Z,99.99
2018-09-08T08:53:46.534Z,99.99
2018-09-08T08:54:46.534Z,99.99
2018-09-08T08:55:46.588Z,99.99
2018-09-08T08:56:46.616Z,99.99
2018-09-08T08:57:46.565Z,99.99
2018-09-08T08:58:46.599Z,99.99
2018-09-08T08:59:46.701Z,99.99
2018-09-08T09:00:46.590Z,99.99
2018-09-08T09:01:46.613Z,99.99
2018-09-08T09:02:46.674Z,99.99
2018-09-08T09:03:46.638Z,99.99
2018-09-08T09:04:46.800Z,99.99
2018-09-08T09:05:46.652Z,99.99
2018-09-08T09:06:46.669Z,99.99
2018-09-08T09:07:46.672Z,99.99
2018-09-08T09:08:47.148Z,99.99
2018-09-08T09:09:46.870Z,99.99
2018-09-08T09:10:46.717Z,99.99
2018-09-08T09:11:47.084Z,99.99
2018-09-08T09:12:46.773Z,99.99
2018-09-08T09:13:46.744Z,99.99
2018-09-08T09:14:46.856Z,99.99
2018-09-08T09:15:46.757Z,99.99
2018-09-08T09:16:46.931Z,99.99
2018-09-08T09:17:46.773Z,99.99
2018-09-08T09:18:47.328Z,99.99
2018-09-08T09:19:46.823Z,99.99
2018-09-08T09:20:46.820Z,99.99
2018-09-08T09:21:46.972Z,99.99
2018-09-08T09:22:46.850Z,99.99
2018-09-08T09:23:46.855Z,99.99
2018-09-08T09:24:47.143Z,99.99
2018-09-08T09:25:46.876Z,99.99
2018-09-08T09:26:46.935Z,99.99
2018-09-08T09:27:46.899Z,99.99
2018-09-08T09:28:46.910Z,99.99
2018-09-08T09:29:47.083Z,99.99
2018-09-08T09:30:46.928Z,99.99
2018-09-08T09:31:46.933Z,99.99
2018-09-08T09:32:46.950Z,99.99
2018-09-08T09:33:46.972Z,99.99
2018-09-08T09:34:47.142Z,99.99
2018-09-08T09:35:46.998Z,99.99
2018-09-08T09:36:47.003Z,99.99
2018-09-08T09:37:46.995Z,99.99
2018-09-08T09:38:47.031Z,99.99
2018-09-08T09:39:47.234Z,99.99
2018-09-08T09:40:47.045Z,99.99
2018-09-08T09:41:47.039Z,99.99
2018-09-08T09:42:47.068Z,99.99
2018-09-08T09:43:47.083Z,99.99
2018-09-08T09:44:47.297Z,99.99
2018-09-08T09:45:47.114Z,99.99
2018-09-08T09:46:47.119Z,99.99
2018-09-08T09:47:47.123Z,99.99
2018-09-08T09:48:47.145Z,99.99
2018-09-08T09:49:47.186Z,99.99
2018-09-08T09:50:47.157Z,99.99
2018-09-08T09:51:47.159Z,99.99
2018-09-08T09:52:47.222Z,99.99
2018-09-08T09:53:47.236Z,99.99
2018-09-08T09:54:47.368Z,99.99
2018-09-08T09:55:47.234Z,99.99
2018-09-08T09:56:47.234Z,99.99
2018-09-08T09:57:47.257Z,99.99
2018-09-08T09:58:47.264Z,99.99
2018-09-08T09:59:47.412Z,99.99
2018-09-08T10:00:47.268Z,99.99
2018-09-08T10:01:47.289Z,99.99
2018-09-08T10:02:47.310Z,99.99
2018-09-08T10:03:47.298Z,99.99
2018-09-08T10:04:47.365Z,99.99
2018-09-08T10:05:47.331Z,99.99
2018-09-08T10:06:47.508Z,99.99
2018-09-08T10:07:47.371Z,99.99
2018-09-08T10:08:47.373Z,99.99
2018-09-08T10:09:47.377Z,99.99
2018-09-08T10:10:47.415Z,99.99
2018-09-08T10:11:47.556Z,99.99
2018-09-08T10:12:47.454Z,99.99
2018-09-08T10:13:47.485Z,99.99
2018-09-08T10:14:47.461Z,99.99
2018-09-08T10:15:47.459Z,99.99
2018-09-08T10:16:47.583Z,99.99
2018-09-08T10:17:47.487Z,99.99
2018-09-08T10:18:47.488Z,99.99
2018-09-08T10:19:47.507Z,99.99
2018-09-08T10:20:47.530Z,99.99
2018-09-08T10:21:47.548Z,99.99
2018-09-08T10:22:47.728Z,99.99
2018-09-08T10:24:04.351Z,99.99
2018-09-08T10:24:47.573Z,99.99
2018-09-08T10:25:47.591Z,99.99
2018-09-08T10:26:47.621Z,99.99
2018-09-08T10:27:47.804Z,99.99
2018-09-08T10:28:47.616Z,99.99
2018-09-08T10:29:47.663Z,99.99
2018-09-08T10:30:47.654Z,99.99
2018-09-08T10:31:47.722Z,99.99
2018-09-08T10:32:47.789Z,99.99
2018-09-08T10:33:47.686Z,99.99
2018-09-08T10:34:47.729Z,99.99
2018-09-08T10:35:47.706Z,99.99
2018-09-08T10:36:47.726Z,99.99
2018-09-08T10:37:47.952Z,99.99
2018-09-08T10:38:47.776Z,99.99
2018-09-08T10:39:47.777Z,99.99
2018-09-08T10:40:47.775Z,99.99
2018-09-08T10:41:47.810Z,99.99
2018-09-08T10:42:47.969Z,99.99
2018-09-08T10:43:47.839Z,99.99
2018-09-08T10:44:47.838Z,99.99
2018-09-08T10:45:47.848Z,99.99
2018-09-08T10:46:47.880Z,99.99
2018-09-08T10:47:48.045Z,99.99
2018-09-08T10:48:47.915Z,99.99
2018-09-08T10:49:47.910Z,99.99
2018-09-08T10:50:47.947Z,99.99
2018-09-08T10:51:47.946Z,99.99
2018-09-08T10:52:48.178Z,99.99
2018-09-08T10:53:48.002Z,99.99
2018-09-08T10:54:48.006Z,99.99
2018-09-08T10:55:48.001Z,99.99
2018-09-08T10:56:48.017Z,99.99
2018-09-08T10:57:48.188Z,99.99
2018-09-08T10:58:48.064Z,99.99
2018-09-08T10:59:48.114Z,99.99
2018-09-08T11:00:48.097Z,99.99
2018-09-08T11:01:48.136Z,99.99
2018-09-08T11:02:48.487Z,99.99
2018-09-08T11:03:48.139Z,99.99
2018-09-08T11:04:48.158Z,99.99
2018-09-08T11:05:48.164Z,99.99
2018-09-08T11:06:48.180Z,99.99
2018-09-08T11:07:48.256Z,99.99
2018-09-08T11:08:48.218Z,99.99
2018-09-08T11:09:48.235Z,99.99
2018-09-08T11:10:48.256Z,99.99
2018-09-08T11:11:48.418Z,99.99
2018-09-08T11:12:48.272Z,99.99
2018-09-08T11:13:48.310Z,99.99
2018-09-08T11:14:48.351Z,99.99
2018-09-08T11:15:48.344Z,99.99
2018-09-08T11:16:48.481Z,99.99
2018-09-08T11:17:48.373Z,99.99
2018-09-08T11:18:48.459Z,99.93
2018-09-08T11:19:48.381Z,98.72
2018-09-08T11:20:48.403Z,98.49
2018-09-08T11:21:48.518Z,99.11
2018-09-08T11:22:48.428Z,98.72
2018-09-08T11:23:48.448Z,98.10
2018-09-08T11:24:48.453Z,97.62
2018-09-08T11:25:48.472Z,96.17
2018-09-08T11:26:48.630Z,97.62
2018-09-08T11:27:48.523Z,97.38
2018-09-08T11:28:48.528Z,96.99
2018-09-08T11:29:48.558Z,95.84
2018-09-08T11:30:48.572Z,92.61
2018-09-08T11:31:48.609Z,90.78
2018-09-08T11:32:48.749Z,92.13
2018-09-08T11:33:48.608Z,91.36
2018-09-08T11:34:48.624Z,90.44
2018-09-08T11:35:48.628Z,91.45
2018-09-08T11:36:48.652Z,89.14
2018-09-08T11:37:48.695Z,88.89
2018-09-08T11:38:48.774Z,87.30
2018-09-08T11:39:48.702Z,86.28
2018-09-08T11:40:48.721Z,80.10
2018-09-08T11:41:48.746Z,77.73
2018-09-08T11:42:48.778Z,76.95
2018-09-08T11:43:48.908Z,76.28
2018-09-08T11:44:48.894Z,74.83
2018-09-08T11:45:48.817Z,75.99
2018-09-08T11:46:48.814Z,75.60
2018-09-08T11:47:48.856Z,74.25
2018-09-08T11:48:49.024Z,74.12
2018-09-08T11:49:48.877Z,76.24
2018-09-08T11:50:48.904Z,75.67
2018-09-08T11:51:48.961Z,74.79
2018-09-08T11:52:48.962Z,74.89
2018-09-08T11:53:49.005Z,75.57
2018-09-08T11:54:48.963Z,75.27
2018-09-08T11:55:49.099Z,75.57
2018-09-08T11:56:49.012Z,76.34
2018-09-08T11:57:49.016Z,76.20
2018-09-08T11:58:49.038Z,75.82
2018-09-08T11:59:49.066Z,76.20
2018-09-08T12:00:49.243Z,76.30
2018-09-08T12:01:49.112Z,77.07
2018-09-08T12:02:49.116Z,76.40
2018-09-08T12:03:49.133Z,76.68
2018-09-08T12:04:49.162Z,77.36
2018-09-08T12:05:49.328Z,77.13
2018-09-08T12:06:49.214Z,77.71
2018-09-08T12:07:49.215Z,78.09
2018-09-08T12:08:49.219Z,78.09
2018-09-08T12:09:49.250Z,78.19
2018-09-08T12:10:49.414Z,77.81
2018-09-08T12:11:49.284Z,78.15
2018-09-08T12:12:49.300Z,78.92
2018-09-08T12:13:49.371Z,79.75
2018-09-08T12:14:49.340Z,80.91
2018-09-08T12:15:49.507Z,81.48
2018-09-08T12:16:49.350Z,81.58
2018-09-08T12:17:49.377Z,82.10
2018-09-08T12:18:49.418Z,81.14
2018-09-08T12:19:49.420Z,81.58
2018-09-08T12:20:49.484Z,81.20
2018-09-08T12:21:49.461Z,81.20
2018-09-08T12:22:49.481Z,81.48
2018-09-08T12:23:49.617Z,82.06
2018-09-08T12:24:49.517Z,81.87
2018-09-08T12:25:49.526Z,81.68
2018-09-08T12:26:49.520Z,81.48
2018-09-08T12:27:49.564Z,81.52
2018-09-08T12:28:49.730Z,79.79
2018-09-08T12:29:49.593Z,79.16
2018-09-08T12:30:49.728Z,78.06
2018-09-08T12:31:49.618Z,79.21
2018-09-08T12:32:49.627Z,79.79
2018-09-08T12:33:49.804Z,79.68
2018-09-08T12:34:49.660Z,76.53
2018-09-08T12:35:49.701Z,73.80
2018-09-08T12:36:49.711Z,70.59
2018-09-08T12:37:49.739Z,67.33
2018-09-08T12:38:50.017Z,65.05
2018-09-08T12:39:49.750Z,63.62
2018-09-08T12:40:49.776Z,62.69
2018-09-08T12:41:49.793Z,61.78
2018-09-08T12:42:49.811Z,59.58
2018-09-08T12:43:49.840Z,57.96
2018-09-08T12:44:49.988Z,56.60
2018-09-08T12:45:49.909Z,56.11
2018-09-08T12:46:49.893Z,55.82
2018-09-08T12:47:49.964Z,54.75
2018-09-08T12:48:49.946Z,54.17
2018-09-08T12:49:50.110Z,55.43
2018-09-08T12:50:49.964Z,54.66
2018-09-08T12:51:50.004Z,55.24
2018-09-08T12:52:50.018Z,55.43
2018-09-08T12:53:50.012Z,54.94